Fords Creek, Mississippi
Current Conditions -  °F | °C
As of 2:53 PM on Wednesday 26 Nov 2014 (Local Time) from KHBG Reporting Station
Clear Clear  
Wind Chill: 18°   Ceiling: Unl
Heat Index: 18°   Visibility: 10mi
Dew Point:   Wind: 14mph
Humidity: 31%   Direction: 230°SW
Pressure: 30.13"   Gusts: 24mph
Location:  30.8781°N, 89.5858°W
Report Text: KHBG 262053Z AUTO 23012G21KT 10SM CLR 18/01 A3013 RMK AO2 SLP203 T01830006 56024
Loading
Personal Weather Stations






























Interactive Weather Map New forecast layout! Learn more

10-Day Weather Forecast

Advertisements
Track Severe Weather on mobile